sensor_id;sensor_type;location;lat;lon;timestamp;temperature;humidity
4596;DHT22;2310;49.978;8.742;2022-09-13T00:03:09;18.40;99.90
4596;DHT22;2310;49.978;8.742;2022-09-13T00:07:11;18.40;99.90
4596;DHT22;2310;49.978;8.742;2022-09-13T00:11:18;18.30;99.90
4596;DHT22;2310;49.978;8.742;2022-09-13T00:15:20;18.20;99.90
4596;DHT22;2310;49.978;8.742;2022-09-13T00:19:21;18.10;99.90
4596;DHT22;2310;49.978;8.742;2022-09-13T00:23:23;18.20;99.90
4596;DHT22;2310;49.978;8.742;2022-09-13T00:27:24;18.10;99.90
4596;DHT22;2310;49.978;8.742;2022-09-13T00:31:27;18.00;99.90
4596;DHT22;2310;49.978;8.742;2022-09-13T00:35:29;18.00;99.90
4596;DHT22;2310;49.978;8.742;2022-09-13T00:39:30;17.80;99.90
4596;DHT22;2310;49.978;8.742;2022-09-13T00:43:53;17.70;99.90
4596;DHT22;2310;49.978;8.742;2022-09-13T00:48:00;17.70;99.90
4596;DHT22;2310;49.978;8.742;2022-09-13T00:52:07;17.60;99.90
4596;DHT22;2310;49.978;8.742;2022-09-13T00:56:24;17.60;99.90
4596;DHT22;2310;49.978;8.742;2022-09-13T01:00:25;17.60;99.90
4596;DHT22;2310;49.978;8.742;2022-09-13T01:04:27;17.50;99.90
4596;DHT22;2310;49.978;8.742;2022-09-13T01:08:31;17.50;99.90
4596;DHT22;2310;49.978;8.742;2022-09-13T01:12:42;17.50;99.90
4596;DHT22;2310;49.978;8.742;2022-09-13T01:16:44;17.40;99.90
4596;DHT22;2310;49.978;8.742;2022-09-13T01:34:25;17.30;99.90
4596;DHT22;2310;49.978;8.742;2022-09-13T01:43:13;17.20;99.90
4596;DHT22;2310;49.978;8.742;2022-09-13T01:47:25;17.10;99.90
4596;DHT22;2310;49.978;8.742;2022-09-13T01:51:31;17.00;99.90
4596;DHT22;2310;49.978;8.742;2022-09-13T01:55:47;16.90;99.90
4596;DHT22;2310;49.978;8.742;2022-09-13T02:00:05;16.90;99.90
4596;DHT22;2310;49.978;8.742;2022-09-13T02:04:10;16.80;99.90
4596;DHT22;2310;49.978;8.742;2022-09-13T02:08:40;16.90;99.90
4596;DHT22;2310;49.978;8.742;2022-09-13T02:12:42;16.90;99.90
4596;DHT22;2310;49.978;8.742;2022-09-13T02:20:54;16.80;99.90
4596;DHT22;2310;49.978;8.742;2022-09-13T02:25:09;16.80;99.90
4596;DHT22;2310;49.978;8.742;2022-09-13T02:29:17;16.80;99.90
4596;DHT22;2310;49.978;8.742;2022-09-13T02:37:26;16.60;99.90
4596;DHT22;2310;49.978;8.742;2022-09-13T02:54:39;16.60;99.90
4596;DHT22;2310;49.978;8.742;2022-09-13T02:58:45;16.60;99.90
4596;DHT22;2310;49.978;8.742;2022-09-13T03:02:48;16.60;99.90
4596;DHT22;2310;49.978;8.742;2022-09-13T03:06:51;16.60;99.90
4596;DHT22;2310;49.978;8.742;2022-09-13T03:20:07;16.60;99.90
4596;DHT22;2310;49.978;8.742;2022-09-13T03:37:28;16.70;99.90
4596;DHT22;2310;49.978;8.742;2022-09-13T03:41:32;16.70;99.90
4596;DHT22;2310;49.978;8.742;2022-09-13T03:45:38;16.80;99.90
4596;DHT22;2310;49.978;8.742;2022-09-13T03:49:40;16.70;99.90
4596;DHT22;2310;49.978;8.742;2022-09-13T03:53:45;16.80;99.90
4596;DHT22;2310;49.978;8.742;2022-09-13T03:57:47;16.90;99.90
4596;DHT22;2310;49.978;8.742;2022-09-13T04:01:48;16.90;99.90
4596;DHT22;2310;49.978;8.742;2022-09-13T04:05:49;16.80;99.90
4596;DHT22;2310;49.978;8.742;2022-09-13T04:09:50;16.80;99.90
4596;DHT22;2310;49.978;8.742;2022-09-13T04:13:52;16.70;99.90
4596;DHT22;2310;49.978;8.742;2022-09-13T04:17:53;16.70;99.90
4596;DHT22;2310;49.978;8.742;2022-09-13T04:21:55;16.80;99.90
4596;DHT22;2310;49.978;8.742;2022-09-13T04:26:01;16.80;99.90
4596;DHT22;2310;49.978;8.742;2022-09-13T04:30:03;16.90;99.90
4596;DHT22;2310;49.978;8.742;2022-09-13T04:34:05;16.90;99.90
4596;DHT22;2310;49.978;8.742;2022-09-13T04:38:07;16.80;99.90
4596;DHT22;2310;49.978;8.742;2022-09-13T04:42:08;16.90;99.90
4596;DHT22;2310;49.978;8.742;2022-09-13T04:46:11;17.00;99.90
4596;DHT22;2310;49.978;8.742;2022-09-13T04:50:12;16.90;99.90
4596;DHT22;2310;49.978;8.742;2022-09-13T04:54:14;16.90;99.90
4596;DHT22;2310;49.978;8.742;2022-09-13T04:58:17;16.60;99.90
4596;DHT22;2310;49.978;8.742;2022-09-13T05:02:18;16.60;99.90
4596;DHT22;2310;49.978;8.742;2022-09-13T05:06:21;16.70;99.90
4596;DHT22;2310;49.978;8.742;2022-09-13T05:10:22;16.70;99.90
4596;DHT22;2310;49.978;8.742;2022-09-13T05:14:24;16.80;99.90
4596;DHT22;2310;49.978;8.742;2022-09-13T05:18:26;16.80;99.90
4596;DHT22;2310;49.978;8.742;2022-09-13T05:22:28;16.80;99.90
4596;DHT22;2310;49.978;8.742;2022-09-13T05:26:29;16.80;99.90
4596;DHT22;2310;49.978;8.742;2022-09-13T05:30:31;16.80;99.90
4596;DHT22;2310;49.978;8.742;2022-09-13T05:34:32;16.80;99.90
4596;DHT22;2310;49.978;8.742;2022-09-13T05:38:34;16.70;99.90
4596;DHT22;2310;49.978;8.742;2022-09-13T05:42:35;16.80;99.90
4596;DHT22;2310;49.978;8.742;2022-09-13T05:46:36;16.80;99.90
4596;DHT22;2310;49.978;8.742;2022-09-13T05:50:38;16.80;99.90
4596;DHT22;2310;49.978;8.742;2022-09-13T05:54:41;16.90;99.90
4596;DHT22;2310;49.978;8.742;2022-09-13T05:58:44;17.00;99.90
4596;DHT22;2310;49.978;8.742;2022-09-13T06:02:45;17.00;99.90
4596;DHT22;2310;49.978;8.742;2022-09-13T06:06:47;17.10;99.90
4596;DHT22;2310;49.978;8.742;2022-09-13T06:11:04;17.20;99.90
4596;DHT22;2310;49.978;8.742;2022-09-13T06:15:03;17.30;99.90
4596;DHT22;2310;49.978;8.742;2022-09-13T06:19:04;17.30;99.90
4596;DHT22;2310;49.978;8.742;2022-09-13T06:23:05;17.30;99.90
4596;DHT22;2310;49.978;8.742;2022-09-13T06:27:06;17.50;99.90
4596;DHT22;2310;49.978;8.742;2022-09-13T06:31:10;17.50;99.90
4596;DHT22;2310;49.978;8.742;2022-09-13T06:35:12;17.70;99.90
4596;DHT22;2310;49.978;8.742;2022-09-13T06:39:13;17.80;99.90
4596;DHT22;2310;49.978;8.742;2022-09-13T06:43:14;17.90;99.90
4596;DHT22;2310;49.978;8.742;2022-09-13T06:47:16;18.00;99.90
4596;DHT22;2310;49.978;8.742;2022-09-13T06:51:19;18.10;99.90
4596;DHT22;2310;49.978;8.742;2022-09-13T06:55:21;18.10;99.90
4596;DHT22;2310;49.978;8.742;2022-09-13T06:59:22;18.00;99.90
4596;DHT22;2310;49.978;8.742;2022-09-13T07:03:26;18.20;99.90
4596;DHT22;2310;49.978;8.742;2022-09-13T07:07:27;18.20;99.90
4596;DHT22;2310;49.978;8.742;2022-09-13T07:11:31;18.50;99.90
4596;DHT22;2310;49.978;8.742;2022-09-13T07:15:35;18.70;99.90
4596;DHT22;2310;49.978;8.742;2022-09-13T07:19:36;18.80;99.90
4596;DHT22;2310;49.978;8.742;2022-09-13T07:23:38;18.80;99.90
4596;DHT22;2310;49.978;8.742;2022-09-13T07:27:40;19.00;99.90
4596;DHT22;2310;49.978;8.742;2022-09-13T07:31:48;19.10;99.90
4596;DHT22;2310;49.978;8.742;2022-09-13T07:35:53;19.00;99.90
4596;DHT22;2310;49.978;8.742;2022-09-13T07:39:51;19.00;99.90
4596;DHT22;2310;49.978;8.742;2022-09-13T07:43:54;18.90;99.90
4596;DHT22;2310;49.978;8.742;2022-09-13T07:47:55;19.00;99.90
4596;DHT22;2310;49.978;8.742;2022-09-13T07:51:56;18.80;99.90
4596;DHT22;2310;49.978;8.742;2022-09-13T07:56:04;18.70;99.90
4596;DHT22;2310;49.978;8.742;2022-09-13T08:00:06;18.60;99.90
4596;DHT22;2310;49.978;8.742;2022-09-13T08:04:11;18.20;99.90
4596;DHT22;2310;49.978;8.742;2022-09-13T08:08:12;18.30;99.90
4596;DHT22;2310;49.978;8.742;2022-09-13T08:12:13;18.40;99.90
4596;DHT22;2310;49.978;8.742;2022-09-13T08:16:18;18.40;99.90
4596;DHT22;2310;49.978;8.742;2022-09-13T08:20:20;18.40;99.90
4596;DHT22;2310;49.978;8.742;2022-09-13T08:24:21;18.40;99.90
4596;DHT22;2310;49.978;8.742;2022-09-13T08:28:22;18.10;99.90
4596;DHT22;2310;49.978;8.742;2022-09-13T08:32:25;18.60;99.90
4596;DHT22;2310;49.978;8.742;2022-09-13T08:36:27;19.00;99.90
4596;DHT22;2310;49.978;8.742;2022-09-13T08:40:41;19.10;99.90
4596;DHT22;2310;49.978;8.742;2022-09-13T08:44:49;19.20;99.90
4596;DHT22;2310;49.978;8.742;2022-09-13T08:48:57;19.70;99.90
4596;DHT22;2310;49.978;8.742;2022-09-13T08:57:16;20.10;99.90
4596;DHT22;2310;49.978;8.742;2022-09-13T09:01:32;20.30;99.90
4596;DHT22;2310;49.978;8.742;2022-09-13T09:05:32;20.50;99.90
4596;DHT22;2310;49.978;8.742;2022-09-13T09:09:39;20.70;99.90
4596;DHT22;2310;49.978;8.742;2022-09-13T09:22:19;20.50;99.90
4596;DHT22;2310;49.978;8.742;2022-09-13T09:26:23;20.50;99.90
4596;DHT22;2310;49.978;8.742;2022-09-13T09:30:45;20.10;99.90
4596;DHT22;2310;49.978;8.742;2022-09-13T09:35:02;19.60;99.90
4596;DHT22;2310;49.978;8.742;2022-09-13T09:38:59;19.90;99.90
4596;DHT22;2310;49.978;8.742;2022-09-13T09:43:01;19.90;99.90
4596;DHT22;2310;49.978;8.742;2022-09-13T09:51:19;20.30;99.90
4596;DHT22;2310;49.978;8.742;2022-09-13T09:55:28;20.10;99.90
4596;DHT22;2310;49.978;8.742;2022-09-13T09:59:31;20.10;99.90
4596;DHT22;2310;49.978;8.742;2022-09-13T10:03:33;20.20;99.90
4596;DHT22;2310;49.978;8.742;2022-09-13T10:07:35;20.20;99.90
4596;DHT22;2310;49.978;8.742;2022-09-13T10:16:05;20.10;99.90
4596;DHT22;2310;49.978;8.742;2022-09-13T10:20:19;20.00;99.90
4596;DHT22;2310;49.978;8.742;2022-09-13T10:24:21;19.50;99.90
4596;DHT22;2310;49.978;8.742;2022-09-13T10:28:23;19.30;99.90
4596;DHT22;2310;49.978;8.742;2022-09-13T10:32:27;19.60;99.90
4596;DHT22;2310;49.978;8.742;2022-09-13T10:36:34;19.70;99.90
4596;DHT22;2310;49.978;8.742;2022-09-13T10:40:37;19.70;99.90
4596;DHT22;2310;49.978;8.742;2022-09-13T10:44:51;19.80;99.90
4596;DHT22;2310;49.978;8.742;2022-09-13T10:48:48;19.90;99.90
4596;DHT22;2310;49.978;8.742;2022-09-13T10:52:54;19.80;99.90
4596;DHT22;2310;49.978;8.742;2022-09-13T10:57:32;19.90;99.90
4596;DHT22;2310;49.978;8.742;2022-09-13T11:01:38;20.10;99.90
4596;DHT22;2310;49.978;8.742;2022-09-13T11:32:07;21.70;99.90
4596;DHT22;2310;49.978;8.742;2022-09-13T11:49:26;22.40;99.90
4596;DHT22;2310;49.978;8.742;2022-09-13T11:53:40;22.60;99.90
4596;DHT22;2310;49.978;8.742;2022-09-13T11:57:43;22.40;99.90
4596;DHT22;2310;49.978;8.742;2022-09-13T12:01:48;22.20;99.90
4596;DHT22;2310;49.978;8.742;2022-09-13T12:05:56;21.60;99.90
4596;DHT22;2310;49.978;8.742;2022-09-13T12:10:02;21.70;99.90
4596;DHT22;2310;49.978;8.742;2022-09-13T12:14:06;21.80;99.90
4596;DHT22;2310;49.978;8.742;2022-09-13T12:18:16;22.20;99.90
4596;DHT22;2310;49.978;8.742;2022-09-13T12:22:18;22.10;99.90
4596;DHT22;2310;49.978;8.742;2022-09-13T12:30:46;22.00;99.90
4596;DHT22;2310;49.978;8.742;2022-09-13T12:35:07;22.20;99.90
4596;DHT22;2310;49.978;8.742;2022-09-13T12:52:11;22.50;99.90
4596;DHT22;2310;49.978;8.742;2022-09-13T13:00:38;22.90;99.90
4596;DHT22;2310;49.978;8.742;2022-09-13T13:04:40;23.20;99.90
4596;DHT22;2310;49.978;8.742;2022-09-13T13:08:52;22.80;99.90
4596;DHT22;2310;49.978;8.742;2022-09-13T13:12:50;22.50;99.90
4596;DHT22;2310;49.978;8.742;2022-09-13T13:16:53;22.80;99.90
4596;DHT22;2310;49.978;8.742;2022-09-13T13:33:27;23.20;99.90
4596;DHT22;2310;49.978;8.742;2022-09-13T13:37:31;23.40;99.90
4596;DHT22;2310;49.978;8.742;2022-09-13T13:41:37;23.20;99.90
4596;DHT22;2310;49.978;8.742;2022-09-13T13:45:55;22.90;99.90
4596;DHT22;2310;49.978;8.742;2022-09-13T13:49:49;23.20;99.90
4596;DHT22;2310;49.978;8.742;2022-09-13T13:53:59;23.10;99.90
4596;DHT22;2310;49.978;8.742;2022-09-13T14:02:45;22.90;99.90
4596;DHT22;2310;49.978;8.742;2022-09-13T14:07:04;22.80;99.90
4596;DHT22;2310;49.978;8.742;2022-09-13T14:15:52;22.80;99.90
4596;DHT22;2310;49.978;8.742;2022-09-13T14:19:54;22.60;99.90
4596;DHT22;2310;49.978;8.742;2022-09-13T14:24:18;23.00;99.90
4596;DHT22;2310;49.978;8.742;2022-09-13T14:28:21;23.30;99.90
4596;DHT22;2310;49.978;8.742;2022-09-13T14:32:25;23.30;99.90
4596;DHT22;2310;49.978;8.742;2022-09-13T14:36:29;23.50;99.90
4596;DHT22;2310;49.978;8.742;2022-09-13T14:40:30;23.50;99.90
4596;DHT22;2310;49.978;8.742;2022-09-13T14:44:31;23.40;99.90
4596;DHT22;2310;49.978;8.742;2022-09-13T14:56:53;23.30;99.90
4596;DHT22;2310;49.978;8.742;2022-09-13T15:01:05;23.50;99.90
4596;DHT22;2310;49.978;8.742;2022-09-13T15:05:11;23.60;99.90
4596;DHT22;2310;49.978;8.742;2022-09-13T15:09:15;23.60;99.90
4596;DHT22;2310;49.978;8.742;2022-09-13T15:13:16;23.60;99.90
4596;DHT22;2310;49.978;8.742;2022-09-13T15:17:17;23.80;99.90
4596;DHT22;2310;49.978;8.742;2022-09-13T15:21:19;23.80;99.90
4596;DHT22;2310;49.978;8.742;2022-09-13T15:25:25;23.80;99.90
4596;DHT22;2310;49.978;8.742;2022-09-13T15:29:27;23.80;99.90
4596;DHT22;2310;49.978;8.742;2022-09-13T15:33:32;23.80;99.90
4596;DHT22;2310;49.978;8.742;2022-09-13T15:37:36;23.90;99.90
4596;DHT22;2310;49.978;8.742;2022-09-13T15:41:39;23.90;99.90
4596;DHT22;2310;49.978;8.742;2022-09-13T15:45:41;23.60;99.90
4596;DHT22;2310;49.978;8.742;2022-09-13T15:49:48;23.20;99.90
4596;DHT22;2310;49.978;8.742;2022-09-13T15:53:51;22.90;99.90
4596;DHT22;2310;49.978;8.742;2022-09-13T15:57:53;23.10;99.90
4596;DHT22;2310;49.978;8.742;2022-09-13T16:01:54;23.20;99.90
4596;DHT22;2310;49.978;8.742;2022-09-13T16:05:57;23.20;99.90
4596;DHT22;2310;49.978;8.742;2022-09-13T16:09:59;23.10;99.90
4596;DHT22;2310;49.978;8.742;2022-09-13T16:14:01;22.70;99.90
4596;DHT22;2310;49.978;8.742;2022-09-13T16:18:03;22.60;99.90
4596;DHT22;2310;49.978;8.742;2022-09-13T16:22:04;22.70;99.90
4596;DHT22;2310;49.978;8.742;2022-09-13T16:26:07;22.50;99.90
4596;DHT22;2310;49.978;8.742;2022-09-13T16:30:11;22.70;99.90
4596;DHT22;2310;49.978;8.742;2022-09-13T16:34:13;22.70;99.90
4596;DHT22;2310;49.978;8.742;2022-09-13T16:38:14;22.50;99.90
4596;DHT22;2310;49.978;8.742;2022-09-13T16:42:16;22.70;99.90
4596;DHT22;2310;49.978;8.742;2022-09-13T16:46:17;22.90;99.90
4596;DHT22;2310;49.978;8.742;2022-09-13T16:50:18;22.90;99.90
4596;DHT22;2310;49.978;8.742;2022-09-13T16:54:20;23.00;99.90
4596;DHT22;2310;49.978;8.742;2022-09-13T16:58:21;22.90;99.90
4596;DHT22;2310;49.978;8.742;2022-09-13T17:02:24;23.00;99.90
4596;DHT22;2310;49.978;8.742;2022-09-13T17:06:26;23.10;99.90
4596;DHT22;2310;49.978;8.742;2022-09-13T17:10:27;23.10;99.90
4596;DHT22;2310;49.978;8.742;2022-09-13T17:14:29;23.00;99.90
4596;DHT22;2310;49.978;8.742;2022-09-13T17:18:30;23.00;99.90
4596;DHT22;2310;49.978;8.742;2022-09-13T17:22:31;23.00;99.90
4596;DHT22;2310;49.978;8.742;2022-09-13T17:26:34;22.90;99.90
4596;DHT22;2310;49.978;8.742;2022-09-13T17:30:35;23.00;99.90
4596;DHT22;2310;49.978;8.742;2022-09-13T17:34:36;22.90;99.90
4596;DHT22;2310;49.978;8.742;2022-09-13T17:38:38;22.80;99.90
4596;DHT22;2310;49.978;8.742;2022-09-13T17:42:40;22.80;99.90
4596;DHT22;2310;49.978;8.742;2022-09-13T17:46:42;22.80;99.90
4596;DHT22;2310;49.978;8.742;2022-09-13T17:50:43;22.90;99.90
4596;DHT22;2310;49.978;8.742;2022-09-13T17:54:44;22.90;99.90
4596;DHT22;2310;49.978;8.742;2022-09-13T17:58:47;22.80;99.90
4596;DHT22;2310;49.978;8.742;2022-09-13T18:02:48;22.80;99.90
4596;DHT22;2310;49.978;8.742;2022-09-13T18:06:50;22.80;99.90
4596;DHT22;2310;49.978;8.742;2022-09-13T18:10:52;22.70;99.90
4596;DHT22;2310;49.978;8.742;2022-09-13T18:14:55;22.60;99.90
4596;DHT22;2310;49.978;8.742;2022-09-13T18:18:59;22.40;99.90
4596;DHT22;2310;49.978;8.742;2022-09-13T18:23:00;22.30;99.90
4596;DHT22;2310;49.978;8.742;2022-09-13T18:27:02;22.00;99.90
4596;DHT22;2310;49.978;8.742;2022-09-13T18:31:05;21.70;99.90
4596;DHT22;2310;49.978;8.742;2022-09-13T18:35:08;21.70;99.90
4596;DHT22;2310;49.978;8.742;2022-09-13T18:39:16;21.80;99.90
4596;DHT22;2310;49.978;8.742;2022-09-13T18:43:17;22.00;99.90
4596;DHT22;2310;49.978;8.742;2022-09-13T18:47:19;22.10;99.90
4596;DHT22;2310;49.978;8.742;2022-09-13T18:51:31;22.10;99.90
4596;DHT22;2310;49.978;8.742;2022-09-13T18:55:34;22.00;99.90
4596;DHT22;2310;49.978;8.742;2022-09-13T18:59:37;22.00;99.90
4596;DHT22;2310;49.978;8.742;2022-09-13T19:03:38;21.80;99.90
4596;DHT22;2310;49.978;8.742;2022-09-13T19:07:40;22.00;99.90
4596;DHT22;2310;49.978;8.742;2022-09-13T19:11:43;22.20;99.90
4596;DHT22;2310;49.978;8.742;2022-09-13T19:15:47;22.40;99.90
4596;DHT22;2310;49.978;8.742;2022-09-13T19:19:48;22.40;99.90
4596;DHT22;2310;49.978;8.742;2022-09-13T19:23:50;22.30;99.90
4596;DHT22;2310;49.978;8.742;2022-09-13T19:27:53;22.10;99.90
4596;DHT22;2310;49.978;8.742;2022-09-13T19:31:56;21.80;99.90
4596;DHT22;2310;49.978;8.742;2022-09-13T19:36:04;21.70;99.90
4596;DHT22;2310;49.978;8.742;2022-09-13T19:40:06;21.50;99.90
4596;DHT22;2310;49.978;8.742;2022-09-13T19:44:07;21.30;99.90
4596;DHT22;2310;49.978;8.742;2022-09-13T19:48:10;21.20;99.90
4596;DHT22;2310;49.978;8.742;2022-09-13T19:52:13;21.20;99.90
4596;DHT22;2310;49.978;8.742;2022-09-13T19:56:15;21.10;99.90
4596;DHT22;2310;49.978;8.742;2022-09-13T20:00:16;20.90;99.90
4596;DHT22;2310;49.978;8.742;2022-09-13T20:04:19;21.00;99.90
4596;DHT22;2310;49.978;8.742;2022-09-13T20:08:22;21.00;99.90
4596;DHT22;2310;49.978;8.742;2022-09-13T20:12:24;21.00;99.90
4596;DHT22;2310;49.978;8.742;2022-09-13T20:16:31;21.00;99.90
4596;DHT22;2310;49.978;8.742;2022-09-13T20:20:34;21.10;99.90
4596;DHT22;2310;49.978;8.742;2022-09-13T20:24:35;21.10;99.90
4596;DHT22;2310;49.978;8.742;2022-09-13T20:28:36;21.00;99.90
4596;DHT22;2310;49.978;8.742;2022-09-13T20:32:37;21.00;99.90
4596;DHT22;2310;49.978;8.742;2022-09-13T20:36:39;21.10;99.90
4596;DHT22;2310;49.978;8.742;2022-09-13T20:40:42;21.00;99.90
4596;DHT22;2310;49.978;8.742;2022-09-13T20:44:43;21.00;99.90
4596;DHT22;2310;49.978;8.742;2022-09-13T20:48:47;21.10;99.90
4596;DHT22;2310;49.978;8.742;2022-09-13T20:52:48;21.10;99.90
4596;DHT22;2310;49.978;8.742;2022-09-13T20:56:50;21.00;99.90
4596;DHT22;2310;49.978;8.742;2022-09-13T21:00:51;21.00;99.90
4596;DHT22;2310;49.978;8.742;2022-09-13T21:04:52;20.80;99.90
4596;DHT22;2310;49.978;8.742;2022-09-13T21:08:54;20.90;99.90
4596;DHT22;2310;49.978;8.742;2022-09-13T21:12:56;20.90;99.90
4596;DHT22;2310;49.978;8.742;2022-09-13T21:16:59;21.00;99.90
4596;DHT22;2310;49.978;8.742;2022-09-13T21:21:01;20.90;99.90
4596;DHT22;2310;49.978;8.742;2022-09-13T21:25:04;21.00;99.90
4596;DHT22;2310;49.978;8.742;2022-09-13T21:29:07;20.90;99.90
4596;DHT22;2310;49.978;8.742;2022-09-13T21:33:09;20.90;99.90
4596;DHT22;2310;49.978;8.742;2022-09-13T21:37:11;20.90;99.90
4596;DHT22;2310;49.978;8.742;2022-09-13T21:41:15;20.80;99.90
4596;DHT22;2310;49.978;8.742;2022-09-13T21:45:16;20.70;99.90
4596;DHT22;2310;49.978;8.742;2022-09-13T21:49:18;20.70;99.90
4596;DHT22;2310;49.978;8.742;2022-09-13T21:53:20;20.70;99.90
4596;DHT22;2310;49.978;8.742;2022-09-13T21:57:21;20.70;99.90
4596;DHT22;2310;49.978;8.742;2022-09-13T22:01:23;20.60;99.90
4596;DHT22;2310;49.978;8.742;2022-09-13T22:05:25;20.50;99.90
4596;DHT22;2310;49.978;8.742;2022-09-13T22:09:26;20.60;99.90
4596;DHT22;2310;49.978;8.742;2022-09-13T22:13:30;20.80;99.90
4596;DHT22;2310;49.978;8.742;2022-09-13T22:17:32;20.80;99.90
4596;DHT22;2310;49.978;8.742;2022-09-13T22:21:35;20.50;99.90
4596;DHT22;2310;49.978;8.742;2022-09-13T22:25:39;20.20;99.90
4596;DHT22;2310;49.978;8.742;2022-09-13T22:29:41;20.10;99.90
4596;DHT22;2310;49.978;8.742;2022-09-13T22:33:43;19.80;99.90
4596;DHT22;2310;49.978;8.742;2022-09-13T22:37:44;19.70;99.90
4596;DHT22;2310;49.978;8.742;2022-09-13T22:41:45;19.60;99.90
4596;DHT22;2310;49.978;8.742;2022-09-13T22:45:46;19.90;99.90
4596;DHT22;2310;49.978;8.742;2022-09-13T22:49:48;20.00;99.90
4596;DHT22;2310;49.978;8.742;2022-09-13T22:53:50;19.90;99.90
4596;DHT22;2310;49.978;8.742;2022-09-13T22:57:52;20.00;99.90
4596;DHT22;2310;49.978;8.742;2022-09-13T23:01:54;20.00;99.90
4596;DHT22;2310;49.978;8.742;2022-09-13T23:05:55;20.00;99.90
4596;DHT22;2310;49.978;8.742;2022-09-13T23:09:57;19.90;99.90
4596;DHT22;2310;49.978;8.742;2022-09-13T23:14:00;19.90;99.90
4596;DHT22;2310;49.978;8.742;2022-09-13T23:18:04;19.80;99.90
4596;DHT22;2310;49.978;8.742;2022-09-13T23:22:05;19.80;99.90
4596;DHT22;2310;49.978;8.742;2022-09-13T23:26:09;19.80;99.90
4596;DHT22;2310;49.978;8.742;2022-09-13T23:30:11;19.70;99.90
4596;DHT22;2310;49.978;8.742;2022-09-13T23:34:12;19.80;99.90
4596;DHT22;2310;49.978;8.742;2022-09-13T23:38:14;19.80;99.90
4596;DHT22;2310;49.978;8.742;2022-09-13T23:42:15;19.80;99.90
4596;DHT22;2310;49.978;8.742;2022-09-13T23:46:18;19.70;99.90
4596;DHT22;2310;49.978;8.742;2022-09-13T23:50:19;19.70;99.90
4596;DHT22;2310;49.978;8.742;2022-09-13T23:54:20;19.80;99.90
4596;DHT22;2310;49.978;8.742;2022-09-13T23:58:22;19.80;99.90
